createdAt,value
2018-09-11T00:01:29.066Z,99.90
2018-09-11T00:03:57.374Z,99.90
2018-09-11T00:06:25.877Z,99.90
2018-09-11T00:08:54.280Z,99.90
2018-09-11T00:11:22.698Z,99.90
2018-09-11T00:13:51.494Z,99.90
2018-09-11T00:16:20.102Z,99.90
2018-09-11T00:18:48.437Z,99.90
2018-09-11T00:21:16.925Z,99.90
2018-09-11T00:23:45.358Z,99.90
2018-09-11T00:26:13.997Z,99.90
2018-09-11T00:28:42.378Z,99.90
2018-09-11T00:31:10.714Z,99.90
2018-09-11T00:33:39.136Z,99.90
2018-09-11T00:36:07.581Z,99.90
2018-09-11T00:38:35.960Z,99.90
2018-09-11T00:41:04.372Z,99.90
2018-09-11T00:43:32.691Z,99.90
2018-09-11T00:46:01.118Z,99.90
2018-09-11T00:48:29.581Z,99.90
2018-09-11T00:50:57.901Z,99.90
2018-09-11T00:53:26.322Z,99.90
2018-09-11T00:55:54.758Z,99.90
2018-09-11T00:58:23.075Z,99.90
2018-09-11T01:00:52.221Z,99.90
2018-09-11T01:03:20.820Z,99.90
2018-09-11T01:05:49.257Z,99.90
2018-09-11T01:08:17.742Z,99.90
2018-09-11T01:10:46.209Z,99.90
2018-09-11T01:13:14.542Z,99.90
2018-09-11T01:15:42.862Z,99.90
2018-09-11T01:18:11.275Z,99.90
2018-09-11T01:20:39.697Z,99.90
2018-09-11T01:23:08.057Z,99.90
2018-09-11T01:25:36.462Z,99.90
2018-09-11T01:28:04.779Z,99.90
2018-09-11T01:30:33.210Z,99.90
2018-09-11T01:33:01.563Z,99.90
2018-09-11T01:35:29.905Z,99.90
2018-09-11T01:37:58.272Z,99.90
2018-09-11T01:40:26.588Z,99.90
2018-09-11T01:42:54.945Z,99.90
2018-09-11T01:45:23.397Z,99.90
2018-09-11T01:47:51.833Z,99.90
2018-09-11T01:50:20.237Z,99.90
2018-09-11T01:52:48.569Z,99.90
2018-09-11T01:55:17.143Z,99.90
2018-09-11T01:57:45.466Z,99.90
2018-09-11T02:00:16.653Z,99.90
2018-09-11T02:02:45.446Z,99.90
2018-09-11T02:05:13.904Z,99.90
2018-09-11T02:07:43.220Z,99.90
2018-09-11T02:10:11.998Z,99.90
2018-09-11T02:12:40.393Z,99.90
2018-09-11T02:15:09.585Z,99.90
2018-09-11T02:17:38.064Z,99.90
2018-09-11T02:20:06.398Z,99.90
2018-09-11T02:22:36.173Z,99.90
2018-09-11T02:25:04.925Z,99.90
2018-09-11T02:27:33.394Z,99.90
2018-09-11T02:30:02.182Z,99.90
2018-09-11T02:32:30.526Z,99.90
2018-09-11T02:34:58.998Z,99.90
2018-09-11T02:37:27.322Z,99.90
2018-09-11T02:39:55.654Z,99.90
2018-09-11T02:42:24.118Z,99.90
2018-09-11T02:44:52.450Z,99.90
2018-09-11T02:47:20.762Z,99.90
2018-09-11T02:49:49.218Z,99.90
2018-09-11T02:52:17.642Z,99.90
2018-09-11T02:54:46.059Z,99.90
2018-09-11T02:57:14.361Z,99.90
2018-09-11T02:59:42.701Z,99.90
2018-09-11T03:02:11.226Z,99.90
2018-09-11T03:04:39.726Z,99.90
2018-09-11T03:07:08.060Z,99.90
2018-09-11T03:09:36.481Z,99.90
2018-09-11T03:12:04.981Z,99.90
2018-09-11T03:14:33.402Z,99.90
2018-09-11T03:17:01.804Z,99.90
2018-09-11T03:19:30.114Z,99.90
2018-09-11T03:21:58.608Z,99.90
2018-09-11T03:24:27.086Z,99.90
2018-09-11T03:26:55.501Z,99.90
2018-09-11T03:29:24.001Z,99.90
2018-09-11T03:31:52.355Z,99.90
2018-09-11T03:34:23.898Z,99.90
2018-09-11T03:36:52.341Z,99.90
2018-09-11T03:39:20.696Z,99.90
2018-09-11T03:41:49.046Z,99.90
2018-09-11T03:44:17.465Z,99.90
2018-09-11T03:46:45.813Z,99.90
2018-09-11T03:49:14.329Z,99.90
2018-09-11T03:51:42.788Z,99.90
2018-09-11T03:54:11.313Z,99.90
2018-09-11T03:56:39.751Z,99.90
2018-09-11T03:59:08.065Z,99.90
2018-09-11T04:01:36.372Z,99.90
2018-09-11T04:04:04.857Z,99.90
2018-09-11T04:06:33.188Z,99.90
2018-09-11T04:09:01.521Z,99.90
2018-09-11T04:11:30.103Z,99.90
2018-09-11T04:13:58.449Z,99.90
2018-09-11T04:16:26.769Z,99.90
2018-09-11T04:18:55.089Z,99.90
2018-09-11T04:21:23.429Z,99.90
2018-09-11T04:23:51.972Z,99.90
2018-09-11T04:26:20.352Z,99.90
2018-09-11T04:28:48.811Z,99.90
2018-09-11T04:31:18.548Z,99.90
2018-09-11T04:33:46.883Z,99.90
2018-09-11T04:36:15.447Z,99.90
2018-09-11T04:38:43.733Z,99.90
2018-09-11T04:41:12.244Z,99.90
2018-09-11T04:43:40.599Z,99.90
2018-09-11T04:46:11.334Z,99.90
2018-09-11T04:48:40.887Z,99.90
2018-09-11T04:51:09.301Z,99.90
2018-09-11T04:53:38.043Z,99.90
2018-09-11T04:56:06.943Z,99.90
2018-09-11T04:58:35.405Z,99.90
2018-09-11T05:01:03.801Z,99.90
2018-09-11T05:03:32.149Z,99.90
2018-09-11T05:06:00.533Z,99.90
2018-09-11T05:08:28.884Z,99.90
2018-09-11T05:10:57.520Z,99.90
2018-09-11T05:13:25.825Z,99.90
2018-09-11T05:15:54.198Z,99.90
2018-09-11T05:18:22.614Z,99.90
2018-09-11T05:20:50.959Z,99.90
2018-09-11T05:23:19.289Z,99.90
2018-09-11T05:25:47.636Z,99.90
2018-09-11T05:28:16.131Z,99.90
2018-09-11T05:30:44.656Z,99.90
2018-09-11T05:33:13.148Z,99.90
2018-09-11T05:35:41.457Z,99.90
2018-09-11T05:38:09.827Z,99.90
2018-09-11T05:40:38.147Z,99.90
2018-09-11T05:43:06.497Z,99.90
2018-09-11T05:45:34.877Z,99.90
2018-09-11T05:48:03.177Z,99.90
2018-09-11T05:50:31.713Z,99.90
2018-09-11T05:53:00.187Z,99.90
2018-09-11T05:55:28.709Z,99.90
2018-09-11T05:57:57.013Z,99.90
2018-09-11T06:00:25.378Z,99.90
2018-09-11T06:02:53.796Z,99.90
2018-09-11T06:05:22.136Z,99.90
2018-09-11T06:07:50.504Z,99.90
2018-09-11T06:10:19.078Z,99.90
2018-09-11T06:12:47.385Z,99.90
2018-09-11T06:15:15.720Z,99.90
2018-09-11T06:17:44.227Z,99.90
2018-09-11T06:20:12.607Z,99.90
2018-09-11T06:22:40.938Z,99.90
2018-09-11T06:25:09.330Z,99.90
2018-09-11T06:27:37.817Z,99.90
2018-09-11T06:30:06.165Z,99.90
2018-09-11T06:32:34.543Z,99.90
2018-09-11T06:35:02.851Z,99.90
2018-09-11T06:37:31.164Z,99.90
2018-09-11T06:39:59.642Z,99.90
2018-09-11T06:42:27.966Z,99.90
2018-09-11T06:44:56.330Z,99.90
2018-09-11T06:47:24.721Z,99.90
2018-09-11T06:49:53.245Z,99.90
2018-09-11T06:52:21.584Z,99.90
2018-09-11T06:54:51.332Z,99.90
2018-09-11T06:57:19.633Z,99.90
2018-09-11T06:59:48.004Z,99.90
2018-09-11T07:02:16.443Z,99.90
2018-09-11T07:04:44.931Z,99.90
2018-09-11T07:07:13.241Z,99.90
2018-09-11T07:09:41.637Z,99.90
2018-09-11T07:12:10.049Z,99.90
2018-09-11T07:14:38.390Z,99.90
2018-09-11T07:17:06.719Z,99.90
2018-09-11T07:19:35.072Z,99.90
2018-09-11T07:22:03.512Z,99.90
2018-09-11T07:24:31.845Z,99.90
2018-09-11T07:27:00.391Z,99.90
2018-09-11T07:29:29.068Z,99.90
2018-09-11T07:31:57.393Z,99.90
2018-09-11T07:34:25.932Z,99.90
2018-09-11T07:36:54.254Z,99.90
2018-09-11T07:39:22.586Z,99.90
2018-09-11T07:41:51.016Z,99.90
2018-09-11T07:44:19.319Z,99.90
2018-09-11T07:46:47.945Z,99.90
2018-09-11T07:49:16.340Z,99.90
2018-09-11T07:51:44.770Z,99.90
2018-09-11T07:54:13.721Z,99.90
2018-09-11T07:56:42.066Z,99.90
2018-09-11T07:59:10.477Z,99.90
2018-09-11T08:01:38.909Z,99.90
2018-09-11T08:04:07.246Z,99.90
2018-09-11T08:06:35.590Z,99.90
2018-09-11T08:09:05.151Z,99.90
2018-09-11T08:11:33.639Z,99.90
2018-09-11T08:14:01.954Z,99.90
2018-09-11T08:16:30.342Z,99.90
2018-09-11T08:18:58.697Z,99.90
2018-09-11T08:21:27.077Z,99.90
2018-09-11T08:23:55.474Z,99.90
2018-09-11T08:26:26.793Z,99.90
2018-09-11T08:28:55.454Z,99.90
2018-09-11T08:31:23.799Z,99.90
2018-09-11T08:33:52.277Z,99.90
2018-09-11T08:36:20.641Z,99.90
2018-09-11T08:38:49.030Z,99.90
2018-09-11T08:41:17.497Z,99.90
2018-09-11T08:43:45.793Z,99.90
2018-09-11T08:46:14.246Z,99.90
2018-09-11T08:48:42.781Z,99.90
2018-09-11T08:51:11.855Z,99.90
2018-09-11T08:53:41.670Z,99.90
2018-09-11T08:56:10.365Z,99.90
2018-09-11T08:58:38.803Z,99.90
2018-09-11T09:01:07.985Z,99.90
2018-09-11T09:03:36.369Z,99.90
2018-09-11T09:06:04.682Z,99.90
2018-09-11T09:08:33.181Z,99.90
2018-09-11T09:11:01.534Z,99.90
2018-09-11T09:13:29.913Z,99.90
2018-09-11T09:15:58.243Z,99.90
2018-09-11T09:18:28.353Z,99.90
2018-09-11T09:20:56.831Z,99.90
2018-09-11T09:23:25.224Z,99.90
2018-09-11T09:25:53.626Z,99.90
2018-09-11T09:28:22.110Z,99.90
2018-09-11T09:30:50.462Z,99.90
2018-09-11T09:33:18.870Z,99.90
2018-09-11T09:35:47.190Z,99.90
2018-09-11T09:38:15.558Z,99.90
2018-09-11T09:40:43.882Z,99.90
2018-09-11T09:43:12.462Z,99.00
2018-09-11T09:45:41.172Z,99.90
2018-09-11T09:48:09.575Z,99.20
2018-09-11T09:50:38.259Z,99.40
2018-09-11T09:53:06.712Z,99.90
2018-09-11T09:55:35.050Z,99.90
2018-09-11T09:58:03.606Z,97.30
2018-09-11T10:00:37.309Z,97.20
2018-09-11T10:03:05.958Z,95.30
2018-09-11T10:05:34.628Z,95.90
2018-09-11T10:08:02.954Z,93.50
2018-09-11T10:10:31.321Z,91.20
2018-09-11T10:12:59.745Z,92.00
2018-09-11T10:15:28.221Z,91.20
2018-09-11T10:17:56.555Z,90.80
2018-09-11T10:20:24.890Z,90.10
2018-09-11T10:22:53.238Z,90.20
2018-09-11T10:25:21.657Z,88.70
2018-09-11T10:27:49.955Z,88.20
2018-09-11T10:30:18.525Z,87.10
2018-09-11T10:32:47.014Z,86.80
2018-09-11T10:35:15.394Z,84.60
2018-09-11T10:37:43.720Z,82.50
2018-09-11T10:40:12.079Z,84.80
2018-09-11T10:42:41.581Z,82.10
2018-09-11T10:45:09.920Z,86.30
2018-09-11T10:47:38.436Z,80.90
2018-09-11T10:50:06.784Z,81.00
2018-09-11T10:52:35.330Z,83.80
2018-09-11T10:55:03.681Z,86.80
2018-09-11T10:57:32.118Z,88.90
2018-09-11T11:00:00.575Z,86.30
2018-09-11T11:02:29.034Z,84.60
2018-09-11T11:04:57.623Z,85.70
2018-09-11T11:07:25.970Z,85.60
2018-09-11T11:09:54.323Z,84.80
2018-09-11T11:12:22.678Z,89.40
2018-09-11T11:14:51.174Z,86.80
2018-09-11T11:17:19.554Z,84.90
2018-09-11T11:19:48.023Z,85.10
2018-09-11T11:22:16.431Z,86.30
2018-09-11T11:24:44.769Z,84.90
2018-09-11T11:27:13.389Z,85.90
2018-09-11T11:29:41.818Z,89.20
2018-09-11T11:32:10.157Z,90.00
2018-09-11T11:34:38.485Z,87.30
2018-09-11T11:37:07.029Z,88.40
2018-09-11T11:39:35.363Z,89.00
2018-09-11T11:42:03.772Z,88.60
2018-09-11T11:44:32.228Z,89.00
2018-09-11T11:47:00.653Z,89.80
2018-09-11T11:49:29.277Z,90.10
2018-09-11T11:51:57.701Z,90.40
2018-09-11T11:54:26.109Z,90.60
2018-09-11T11:56:54.530Z,91.60
2018-09-11T11:59:23.096Z,89.30
2018-09-11T12:01:51.537Z,89.40
2018-09-11T12:04:20.006Z,88.90
2018-09-11T12:06:48.341Z,90.30
2018-09-11T12:09:16.784Z,87.80
2018-09-11T12:11:45.126Z,89.50
2018-09-11T12:14:13.445Z,87.90
2018-09-11T12:16:41.797Z,89.10
2018-09-11T12:19:10.252Z,86.10
2018-09-11T12:21:38.707Z,88.10
2018-09-11T12:24:07.011Z,89.20
2018-09-11T12:26:35.426Z,90.50
2018-09-11T12:29:03.741Z,91.30
2018-09-11T12:31:32.136Z,90.20
2018-09-11T12:34:00.623Z,89.70
2018-09-11T12:36:29.013Z,90.90
2018-09-11T12:38:57.358Z,90.40
2018-09-11T12:41:25.801Z,90.90
2018-09-11T12:43:54.194Z,90.30
2018-09-11T12:46:22.766Z,90.50
2018-09-11T12:48:50.963Z,90.70
2018-09-11T12:51:19.286Z,90.20
2018-09-11T12:53:47.630Z,90.00
2018-09-11T12:56:16.034Z,90.20
2018-09-11T12:58:44.369Z,90.40
2018-09-11T13:01:12.877Z,90.20
2018-09-11T13:03:41.208Z,89.20
2018-09-11T13:06:09.845Z,90.50
2018-09-11T13:08:38.230Z,89.10
2018-09-11T13:11:06.655Z,87.30
2018-09-11T13:13:34.990Z,90.20
2018-09-11T13:16:03.324Z,88.10
2018-09-11T13:18:31.730Z,88.60
2018-09-11T13:21:00.117Z,88.60
2018-09-11T13:23:28.520Z,88.10
2018-09-11T13:25:56.925Z,88.50
2018-09-11T13:28:25.274Z,90.50
2018-09-11T13:30:53.653Z,88.90
2018-09-11T13:33:22.072Z,88.30
2018-09-11T13:35:50.405Z,88.40
2018-09-11T13:38:18.871Z,87.30
2018-09-11T13:40:47.404Z,87.20
2018-09-11T13:43:15.979Z,87.40
2018-09-11T13:45:44.326Z,86.30
2018-09-11T13:48:12.742Z,87.80
2018-09-11T13:50:41.181Z,84.40
2018-09-11T13:53:09.666Z,85.60
2018-09-11T13:55:37.970Z,85.10
2018-09-11T13:58:06.402Z,84.90
2018-09-11T14:00:34.866Z,84.70
2018-09-11T14:03:03.248Z,84.80
2018-09-11T14:05:31.677Z,88.50
2018-09-11T14:07:59.993Z,84.50
2018-09-11T14:10:28.350Z,85.90
2018-09-11T14:12:56.770Z,84.00
2018-09-11T14:15:25.149Z,85.00
2018-09-11T14:17:53.529Z,84.10
2018-09-11T14:20:22.194Z,84.40
2018-09-11T14:22:50.519Z,84.40
2018-09-11T14:25:19.035Z,83.80
2018-09-11T14:27:47.390Z,84.10
2018-09-11T14:30:15.833Z,83.30
2018-09-11T14:32:44.349Z,82.40
2018-09-11T14:35:12.902Z,82.20
2018-09-11T14:37:41.606Z,82.40
2018-09-11T14:40:10.058Z,81.50
2018-09-11T14:42:38.428Z,82.10
2018-09-11T14:45:07.040Z,81.70
2018-09-11T14:47:40.707Z,81.50
2018-09-11T14:50:09.073Z,81.00
2018-09-11T14:52:38.344Z,80.90
2018-09-11T14:55:07.077Z,81.00
2018-09-11T14:57:35.806Z,81.00
2018-09-11T15:00:04.450Z,80.80
2018-09-11T15:02:32.837Z,81.30
2018-09-11T15:05:01.402Z,80.80
2018-09-11T15:07:29.729Z,80.40
2018-09-11T15:09:58.161Z,79.90
2018-09-11T15:12:26.606Z,80.20
2018-09-11T15:14:55.023Z,80.40
2018-09-11T15:17:23.530Z,82.60
2018-09-11T15:19:51.873Z,79.90
2018-09-11T15:22:20.436Z,79.10
2018-09-11T15:24:48.743Z,79.20
2018-09-11T15:27:17.094Z,78.20
2018-09-11T15:29:45.581Z,78.80
2018-09-11T15:32:14.067Z,79.00
2018-09-11T15:34:42.410Z,79.00
2018-09-11T15:37:10.866Z,78.40
2018-09-11T15:39:39.235Z,78.00
2018-09-11T15:42:07.722Z,79.10
2018-09-11T15:44:36.093Z,79.20
2018-09-11T15:47:04.510Z,78.80
2018-09-11T15:49:32.854Z,76.50
2018-09-11T15:52:01.213Z,78.80
2018-09-11T15:54:29.896Z,78.10
2018-09-11T15:56:58.266Z,78.30
2018-09-11T15:59:26.691Z,79.40
2018-09-11T16:01:55.043Z,79.00
2018-09-11T16:04:23.748Z,78.80
2018-09-11T16:06:52.149Z,77.80
2018-09-11T16:09:20.644Z,78.70
2018-09-11T16:11:49.120Z,79.40
2018-09-11T16:14:17.642Z,78.90
2018-09-11T16:16:45.956Z,79.00
2018-09-11T16:19:14.428Z,78.80
2018-09-11T16:21:42.753Z,79.00
2018-09-11T16:24:11.142Z,79.10
2018-09-11T16:26:40.501Z,80.30
2018-09-11T16:29:08.901Z,79.50
2018-09-11T16:31:37.233Z,79.50
2018-09-11T16:34:05.631Z,80.60
2018-09-11T16:36:34.162Z,83.50
2018-09-11T16:39:02.719Z,82.00
2018-09-11T16:41:31.123Z,81.30
2018-09-11T16:43:59.441Z,82.60
2018-09-11T16:46:27.831Z,85.90
2018-09-11T16:48:56.187Z,83.90
2018-09-11T16:51:24.501Z,83.50
2018-09-11T16:53:52.881Z,83.20
2018-09-11T16:56:21.203Z,83.00
2018-09-11T16:58:49.621Z,85.90
2018-09-11T17:01:18.025Z,84.60
2018-09-11T17:03:46.478Z,84.10
2018-09-11T17:06:14.921Z,85.80
2018-09-11T17:08:43.590Z,84.70
2018-09-11T17:11:11.906Z,87.20
2018-09-11T17:13:40.273Z,87.00
2018-09-11T17:16:08.830Z,86.90
2018-09-11T17:18:37.175Z,87.10
2018-09-11T17:21:05.667Z,87.40
2018-09-11T17:23:34.173Z,90.30
2018-09-11T17:26:02.650Z,89.40
2018-09-11T17:28:31.155Z,89.90
2018-09-11T17:30:59.667Z,87.40
2018-09-11T17:33:28.027Z,91.50
2018-09-11T17:35:56.586Z,89.50
2018-09-11T17:38:24.982Z,92.90
2018-09-11T17:40:53.326Z,92.20
2018-09-11T17:43:21.769Z,92.40
2018-09-11T17:45:50.203Z,91.20
2018-09-11T17:48:18.581Z,91.10
2018-09-11T17:50:49.886Z,90.70
2018-09-11T17:53:18.482Z,90.70
2018-09-11T17:55:46.958Z,91.60
2018-09-11T17:58:15.360Z,91.00
2018-09-11T18:00:43.874Z,91.50
2018-09-11T18:03:13.535Z,90.90
2018-09-11T18:05:41.882Z,91.30
2018-09-11T18:08:16.773Z,91.80
2018-09-11T18:10:45.113Z,92.70
2018-09-11T18:13:13.484Z,92.90
2018-09-11T18:15:41.882Z,92.70
2018-09-11T18:18:10.830Z,93.10
2018-09-11T18:20:39.190Z,93.50
2018-09-11T18:23:07.682Z,93.90
2018-09-11T18:25:36.098Z,94.30
2018-09-11T18:28:04.430Z,95.00
2018-09-11T18:30:32.922Z,96.20
2018-09-11T18:33:01.260Z,96.50
2018-09-11T18:35:29.819Z,97.20
2018-09-11T18:37:58.185Z,96.90
2018-09-11T18:40:26.537Z,97.60
2018-09-11T18:42:54.943Z,97.30
2018-09-11T18:45:23.397Z,97.20
2018-09-11T18:47:51.743Z,97.50
2018-09-11T18:50:20.490Z,97.70
2018-09-11T18:52:48.884Z,97.50
2018-09-11T18:55:17.309Z,96.80
2018-09-11T18:57:45.840Z,96.20
2018-09-11T19:00:14.135Z,96.50
2018-09-11T19:02:42.525Z,96.80
2018-09-11T19:05:10.946Z,96.70
2018-09-11T19:07:39.449Z,97.40
2018-09-11T19:10:07.794Z,98.50
2018-09-11T19:12:36.153Z,99.20
2018-09-11T19:15:04.923Z,98.90
2018-09-11T19:17:33.335Z,98.80
2018-09-11T19:20:01.871Z,98.30
2018-09-11T19:22:30.185Z,98.50
2018-09-11T19:24:58.665Z,98.70
2018-09-11T19:27:27.019Z,99.30
2018-09-11T19:29:55.339Z,99.80
2018-09-11T19:32:23.778Z,99.90
2018-09-11T19:34:52.342Z,99.90
2018-09-11T19:37:20.873Z,99.90
2018-09-11T19:39:49.255Z,99.90
2018-09-11T19:42:17.855Z,99.90
2018-09-11T19:44:46.260Z,99.90
2018-09-11T19:47:14.638Z,99.90
2018-09-11T19:49:43.020Z,99.90
2018-09-11T19:52:11.381Z,99.90
2018-09-11T19:54:40.010Z,99.90
2018-09-11T19:57:08.594Z,99.90
2018-09-11T20:01:59.056Z,99.90
2018-09-11T20:04:27.428Z,99.90
2018-09-11T20:06:55.840Z,99.90
2018-09-11T20:09:24.191Z,99.90
2018-09-11T20:11:52.537Z,99.90
2018-09-11T20:14:20.946Z,99.90
2018-09-11T20:16:49.386Z,99.90
2018-09-11T20:19:17.789Z,99.90
2018-09-11T20:21:46.137Z,99.90
2018-09-11T20:24:14.500Z,99.90
2018-09-11T20:26:42.957Z,99.90
2018-09-11T20:29:11.309Z,99.90
2018-09-11T20:31:41.827Z,99.90
2018-09-11T20:34:10.213Z,99.90
2018-09-11T20:36:38.607Z,99.90
2018-09-11T20:39:09.466Z,99.90
2018-09-11T20:41:37.850Z,99.90
2018-09-11T20:44:06.501Z,99.90
2018-09-11T20:46:34.892Z,99.90
2018-09-11T20:49:03.343Z,99.90
2018-09-11T20:51:31.706Z,99.90
2018-09-11T20:54:00.045Z,99.90
2018-09-11T20:56:28.714Z,99.90
2018-09-11T20:58:57.070Z,99.90
2018-09-11T21:01:25.593Z,99.90
2018-09-11T21:03:53.941Z,99.90
2018-09-11T21:06:22.612Z,99.90
2018-09-11T21:08:51.069Z,99.90
2018-09-11T21:11:19.555Z,99.90
2018-09-11T21:13:47.964Z,99.90
2018-09-11T21:16:16.321Z,99.90
2018-09-11T21:18:44.673Z,99.90
2018-09-11T21:21:13.076Z,99.90
2018-09-11T21:23:41.483Z,99.90
2018-09-11T21:26:09.837Z,99.90
2018-09-11T21:28:38.177Z,99.90
2018-09-11T21:31:07.121Z,99.90
2018-09-11T21:33:35.496Z,99.90
2018-09-11T21:36:03.938Z,99.90
2018-09-11T21:38:32.312Z,99.90
2018-09-11T21:41:00.633Z,99.90
2018-09-11T21:43:29.137Z,99.90
2018-09-11T21:46:02.037Z,99.90
2018-09-11T21:48:30.473Z,99.90
2018-09-11T21:50:58.832Z,99.90
2018-09-11T21:53:27.163Z,99.90
2018-09-11T21:55:55.667Z,99.90
2018-09-11T21:58:24.129Z,99.90
2018-09-11T22:00:57.655Z,99.90
2018-09-11T22:03:26.190Z,99.90
2018-09-11T22:05:54.518Z,99.90
2018-09-11T22:08:23.042Z,99.90
2018-09-11T22:10:51.496Z,99.90
2018-09-11T22:13:19.876Z,99.90
2018-09-11T22:15:48.205Z,99.90
2018-09-11T22:18:16.547Z,99.90
2018-09-11T22:20:44.968Z,99.90
2018-09-11T22:23:13.538Z,99.90
2018-09-11T22:25:41.937Z,99.90
2018-09-11T22:28:10.367Z,99.90
2018-09-11T22:30:38.806Z,99.90
2018-09-11T22:33:07.517Z,99.90
2018-09-11T22:35:35.986Z,99.90
2018-09-11T22:38:04.481Z,99.90
2018-09-11T22:40:32.989Z,99.90
2018-09-11T22:43:01.367Z,99.90
2018-09-11T22:45:30.689Z,99.90
2018-09-11T22:47:59.245Z,99.90
2018-09-11T22:50:27.825Z,99.90
2018-09-11T22:52:56.177Z,99.90
2018-09-11T22:55:24.541Z,99.90
2018-09-11T22:57:52.909Z,99.90
2018-09-11T23:00:21.282Z,99.90
2018-09-11T23:02:49.651Z,99.90
2018-09-11T23:05:18.515Z,99.90
2018-09-11T23:07:46.942Z,99.90
2018-09-11T23:10:16.193Z,99.90
2018-09-11T23:12:44.654Z,99.90
2018-09-11T23:15:12.997Z,99.90
2018-09-11T23:17:41.946Z,99.90
2018-09-11T23:20:10.247Z,99.90
2018-09-11T23:22:38.601Z,99.90
2018-09-11T23:25:07.033Z,99.90
2018-09-11T23:27:35.412Z,99.90
2018-09-11T23:30:03.866Z,99.90
2018-09-11T23:32:32.314Z,99.90
2018-09-11T23:35:00.778Z,99.90
2018-09-11T23:37:29.226Z,99.90
2018-09-11T23:39:57.569Z,99.90
2018-09-11T23:42:25.974Z,99.90
2018-09-11T23:44:54.372Z,99.90
2018-09-11T23:47:22.801Z,99.90
2018-09-11T23:49:51.205Z,99.90
2018-09-11T23:52:19.574Z,99.90
2018-09-11T23:54:48.002Z,99.90
2018-09-11T23:57:16.403Z,99.90
2018-09-11T23:59:44.827Z,99.90
